Charlotte, North Carolina
Current Conditions -  °F | °C
As of 4:52 AM on Sunday 26 Oct 2014 (Local Time) from KCLT Reporting Station
Clear Clear  
Wind Chill: 54°   Ceiling: Unl
Heat Index: 54°   Visibility: 10mi
Dew Point: 47°   Wind: 5mph
Humidity: 77%   Direction: 300°WNW
Pressure: 29.9"   Gusts: NA
Location:  35.22°N, 80.84°W
Report Text: KCLT 260852Z 30004KT 10SM CLR 12/08 A2990 RMK AO2 SLP121 T01220083 57007
Loading
Personal Weather Stations






























Interactive Weather Map
Tropical Storm Tracking
New forecast layout! Learn more

10-Day Weather Forecast

Advertisements
Track Severe Weather on mobile